Nearby METAR Reports

 

EBAW - Antwerpen, Belgium
Distance from station: NW 22km
Updated: 2024-02-28 17:20
Partly cloudy
Partly cloudy
 Wind from SSW
Wind: SSW 17 km/h
Temperature: 9°C
Wind Chill: 7°C
Dew Point: 5°C
Humidity: 76%
Barometer: 1020 hPa
Clouds: Partly cloudy
Visibility: 10 km
Cloud details: Partly cloudy 549 m
2024/02/28 16:20 EBAW 281620Z 20009KT 9999 SCT018 09/05 Q1020 NOSIG
EBBR - Brussel, Belgium
Distance from station: SW 24km
Updated: 2024-02-28 17:20
Few Clouds
Few Clouds
 Wind from S
Wind: S 15 km/h
Temperature: 9°C
Wind Chill: 7°C
Dew Point: 6°C
Humidity: 82%
Barometer: 1020 hPa
Clouds: Few Clouds
Visibility: 10 km
Cloud details: Few Clouds 671 m
2024/02/28 16:20 EBBR 281620Z 19008KT 9999 FEW022 09/06 Q1020 NOSIG
 
EBDT - Schaffen, Belgium
Distance from station: ESE 26km
Updated: 2024-02-28 17:25
Mostly cloudy
Mostly cloudy
 Wind from S
Wind: S 13 km/h
Temperature: 8°C
Wind Chill: 6°C
Dew Point: 5°C
Humidity: 82%
Barometer: 1020 hPa
Clouds: Mostly cloudy
Visibility: 10 km
Cloud details: Partly cloudy 488 m
Mostly cloudy 1585 m
Mostly cloudy 4572 m
2024/02/28 16:25 EBDT 281625Z AUTO 18007KT 9999 SCT016/// BKN052/// BKN150/// 08/05 Q1020 WHT
EBBE - Beauvechain, Belgium
Distance from station: S 36km
Updated: 2024-02-28 17:36
Mostly cloudy
Mostly cloudy
 Wind from SSW
Wind: SSW 19 km/h
Temperature: 8°C
Wind Chill: 4°C
Dew Point: 5°C
Humidity: 82%
Barometer: 1020 hPa
Clouds: Mostly cloudy
Visibility: 10 km
Cloud details: Few Clouds 457 m
Mostly cloudy 1219 m
2024/02/28 16:36 EBBE 281636Z 21010KT 9999 FEW015 BKN040 08/05 Q1020 BLU FCST CANCEL
 
EHWO - Woensdrecht Rnla, Netherlands
Distance from station: NNW 50km
Updated: 2024-02-28 17:25
Overcast
Overcast
 Wind from S
Wind: S 11 km/h
Temperature: 10°C
Wind Chill: 8°C
Dew Point: 6°C
Humidity: 76%
Barometer: 1019 hPa
Clouds: Overcast
Visibility: 10 km
Cloud details: Mostly cloudy 518 m
Mostly cloudy 732 m
Overcast 3658 m
2024/02/28 16:25 EHWO 281625Z AUTO 19006KT 150V230 9999 BKN017 BKN024 OVC120 10/06 Q1019 WHT
EBBL - Kleine-Brogel, Belgium
Distance from station: ENE 54km
Updated: 2024-02-28 17:33
Mostly cloudy
Mostly cloudy
 Wind from S
Wind: S 9 km/h
Temperature: 8°C
Wind Chill: 6°C
Dew Point: 5°C
Humidity: 82%
Barometer: 1020 hPa
Clouds: Mostly cloudy
Visibility: 10 km
Cloud details: Partly cloudy 518 m
Mostly cloudy 1676 m
2024/02/28 16:33 EBBL 281633Z 19005KT 9999 SCT017 BKN055 08/05 Q1020 WHT FCST CANCEL
 
EHGR - Gilze-Rijen Rnla, Netherlands
Distance from station: NNE 57km
Updated: 2024-02-28 17:25
Overcast
Overcast
 Wind from S
Wind: S 17 km/h
Temperature: 9°C
Wind Chill: 7°C
Dew Point: 6°C
Humidity: 82%
Barometer: 1019 hPa
Clouds: Overcast
Visibility: 10 km
Cloud details: Overcast 3658 m
2024/02/28 16:25 EHGR 281625Z AUTO 18009KT 140V210 9999 OVC120 09/06 Q1019 BLU
EHEH - Eindhoven Rnlafb, Netherlands
Distance from station: NE 63km
Updated: 2024-02-28 17:38
Overcast
Overcast
 Wind from S
Wind: S 13 km/h
Temperature: 9°C
Wind Chill: 7°C
Dew Point: 5°C
Humidity: 76%
Barometer: 1019 hPa
Clouds: Overcast
Visibility: 10 km
Cloud details: Few Clouds 549 m
Overcast 3962 m
2024/02/28 16:38 EHEH 281638Z AUTO 18007KT 9999 FEW018 OVC130 09/05 Q1019 BLU NOSIG
 
EBCI - Charleroi, Belgium
Distance from station: SSW 70km
Updated: 2024-02-28 17:20
Few Clouds
Few Clouds
 Wind from SSW
Wind: SSW 19 km/h
Temperature: 7°C
Wind Chill: 4°C
Dew Point: 3°C
Humidity: 76%
Barometer: 1020 hPa
Clouds: Few Clouds
Visibility: 10 km
Cloud details: Few Clouds 427 m
2024/02/28 16:20 EBCI 281620Z 20010KT 9999 FEW014 07/03 Q1020 NOSIG
EBLG - Bierset, Belgium
Distance from station: SE 72km
Updated: 2024-02-28 17:20
Clear
Clear
 Wind from SSW
Wind: SSW 15 km/h
Temperature: 8°C
Wind Chill: 5°C
Dew Point: 3°C
Humidity: 71%
Barometer: 1020 hPa
Summary: Clear
Visibility: greater than 10 km
2024/02/28 16:20 EBLG 281620Z 21008KT CAVOK 08/03 Q1020 NOSIG
Benelux Weer Netwerk cwop awekas hwa wcloud pwsweather wow wow